YPTN/KTR METAR and TAF weather

Enter ICAO airport designator
Station Type Date Time Source
YPTN METAR 2019/08/25 13:30 UTC NOAA

YPTN 251330Z AUTO 00000KT 9999 // NCD 18/07 Q1014


Station Type Date Time Source
YPTN Decoded METAR 2019/08/25 13:30 UTC NOAA

Station name not available
Aug 25, 2019 - 09:30 AM EDT / 2019.08.25 1330 UTC
Wind: Calm:0
Visibility: greater than 7 mile(s):0
Temperature: 64 F (18 C)
Dew Point: 44 F (7 C)
Relative Humidity: 48%
Pressure (altimeter): 29.94 in. Hg (1014 hPa)
ob: YPTN 251330Z AUTO 00000KT 9999 // NCD 18/07 Q1014
cycle: 13

Station Type Date Time Source
YPTN TAF 2019/08/25 12:33 UTC NOAA

TAF YPTN 251105Z 2512/2612 11008KT CAVOK

Example: see airport list